createdAt,value
2018-04-06T00:00:10.761Z,101964.94
2018-04-06T00:02:38.905Z,101965.36
2018-04-06T00:05:07.049Z,101964.34
2018-04-06T00:07:35.169Z,101965.93
2018-04-06T00:10:03.312Z,101965.50
2018-04-06T00:12:31.451Z,101965.08
2018-04-06T00:14:59.590Z,101965.08
2018-04-06T00:17:27.705Z,101961.55
2018-04-06T00:19:55.877Z,101957.76
2018-04-06T00:22:23.971Z,101964.36
2018-04-06T00:24:52.118Z,101965.33
2018-04-06T00:27:20.234Z,101961.63
2018-04-06T00:29:48.356Z,101962.41
2018-04-06T00:32:16.460Z,101965.33
2018-04-06T00:34:44.625Z,101959.39
2018-04-06T00:37:12.754Z,101962.75
2018-04-06T00:39:40.871Z,101959.68
2018-04-06T00:42:08.974Z,101955.73
2018-04-06T00:44:37.110Z,101951.72
2018-04-06T00:47:05.246Z,101954.30
2018-04-06T00:49:33.365Z,101948.70
2018-04-06T00:52:01.489Z,101946.32
2018-04-06T00:54:29.618Z,101940.88
2018-04-06T00:56:57.763Z,101940.23
2018-04-06T00:59:25.892Z,101945.05
2018-04-06T01:01:54.042Z,101939.20
2018-04-06T01:04:22.168Z,101928.44
2018-04-06T01:06:50.301Z,101936.05
2018-04-06T01:09:18.453Z,101927.33
2018-04-06T01:11:46.582Z,101927.42
2018-04-06T01:14:14.700Z,101927.25
2018-04-06T01:16:42.810Z,101929.16
2018-04-06T01:19:10.937Z,101936.38
2018-04-06T01:21:39.119Z,101934.31
2018-04-06T01:24:07.264Z,101936.48
2018-04-06T01:26:35.383Z,101932.16
2018-04-06T01:29:03.533Z,101932.08
2018-04-06T01:31:31.642Z,101930.48
2018-04-06T01:33:59.793Z,101932.67
2018-04-06T01:36:28.066Z,101933.67
2018-04-06T01:38:56.172Z,101937.12
2018-04-06T01:41:24.294Z,101932.16
2018-04-06T01:43:52.435Z,101927.59
2018-04-06T01:46:20.581Z,101929.09
2018-04-06T01:48:48.765Z,101931.85
2018-04-06T01:51:16.906Z,101927.59
2018-04-06T01:53:45.052Z,101923.23
2018-04-06T01:56:13.164Z,101923.41
2018-04-06T01:58:41.305Z,101922.22
2018-04-06T02:01:09.427Z,101924.02
2018-04-06T02:03:37.557Z,101928.28
2018-04-06T02:06:05.696Z,101924.71
2018-04-06T02:08:33.836Z,101920.71
2018-04-06T02:11:01.974Z,101920.40
2018-04-06T02:13:30.099Z,101918.47
2018-04-06T02:15:58.228Z,101918.98
2018-04-06T02:18:26.330Z,101920.30
2018-04-06T02:20:54.501Z,101923.42
2018-04-06T02:23:22.656Z,101917.55
2018-04-06T02:25:50.754Z,101919.67
2018-04-06T02:28:18.866Z,101919.94
2018-04-06T02:30:46.994Z,101920.91
2018-04-06T02:33:15.120Z,101915.75
2018-04-06T02:35:43.259Z,101912.35
2018-04-06T02:38:11.405Z,101918.17
2018-04-06T02:40:39.516Z,101920.01
2018-04-06T02:43:07.646Z,101917.91
2018-04-06T02:45:35.771Z,101916.78
2018-04-06T02:48:03.888Z,101913.81
2018-04-06T02:50:32.913Z,101910.63
2018-04-06T02:53:01.043Z,101912.81
2018-04-06T02:55:29.166Z,101917.22
2018-04-06T02:57:57.314Z,101918.08
2018-04-06T03:00:25.444Z,101914.79
2018-04-06T03:02:53.566Z,101918.59
2018-04-06T03:05:21.703Z,101919.97
2018-04-06T03:07:49.826Z,101914.16
2018-04-06T03:10:17.954Z,101921.45
2018-04-06T03:12:46.076Z,101918.00
2018-04-06T03:15:14.196Z,101919.16
2018-04-06T03:17:42.460Z,101911.16
2018-04-06T03:20:10.571Z,101910.50
2018-04-06T03:22:38.700Z,101911.84
2018-04-06T03:25:06.855Z,101907.87
2018-04-06T03:27:34.955Z,101906.26
2018-04-06T03:30:03.070Z,101908.55
2018-04-06T03:32:31.237Z,101911.14
2018-04-06T03:34:59.688Z,101907.02
2018-04-06T03:37:27.815Z,101920.56
2018-04-06T03:39:55.932Z,101922.17
2018-04-06T03:42:27.269Z,101922.04
2018-04-06T03:44:55.376Z,101914.76
2018-04-06T03:47:23.525Z,101915.11
2018-04-06T03:49:51.632Z,101917.17
2018-04-06T03:52:19.777Z,101917.91
2018-04-06T03:54:47.896Z,101910.75
2018-04-06T03:57:16.014Z,101914.54
2018-04-06T03:59:44.149Z,101905.80
2018-04-06T04:02:12.250Z,101908.64
2018-04-06T04:04:40.402Z,101905.20
2018-04-06T04:07:08.520Z,101902.91
2018-04-06T04:09:36.632Z,101895.55
2018-04-06T04:12:04.770Z,101897.41
2018-04-06T04:14:32.901Z,101892.46
2018-04-06T04:17:01.019Z,101897.63
2018-04-06T04:19:29.155Z,101900.20
2018-04-06T04:21:57.268Z,101900.08
2018-04-06T04:24:25.417Z,101903.14
2018-04-06T04:26:53.513Z,101897.41
2018-04-06T04:29:21.665Z,101902.95
2018-04-06T04:31:49.799Z,101904.50
2018-04-06T04:34:17.916Z,101905.48
2018-04-06T04:36:46.061Z,101903.31
2018-04-06T04:39:14.169Z,101903.84
2018-04-06T04:41:42.330Z,101898.18
2018-04-06T04:44:10.443Z,101893.17
2018-04-06T04:46:38.583Z,101902.94
2018-04-06T04:49:06.702Z,101900.41
2018-04-06T04:51:35.303Z,101903.95
2018-04-06T04:54:03.442Z,101906.22
2018-04-06T04:56:31.581Z,101896.66
2018-04-06T04:59:00.021Z,101900.55
2018-04-06T05:01:28.142Z,101887.94
2018-04-06T05:03:56.260Z,101892.75
2018-04-06T05:06:27.548Z,101888.13
2018-04-06T05:08:55.681Z,101885.14
2018-04-06T05:11:23.774Z,101881.06
2018-04-06T05:13:51.898Z,101891.37
2018-04-06T05:16:20.027Z,101890.64
2018-04-06T05:18:48.180Z,101892.83
2018-04-06T05:21:16.280Z,101893.19
2018-04-06T05:23:44.433Z,101897.52
2018-04-06T05:26:12.561Z,101898.56
2018-04-06T05:28:40.692Z,101891.55
2018-04-06T05:31:08.818Z,101887.16
2018-04-06T05:33:36.947Z,101883.42
2018-04-06T05:36:05.085Z,101890.55
2018-04-06T05:38:33.222Z,101883.44
2018-04-06T05:41:01.338Z,101884.14
2018-04-06T05:43:29.470Z,101877.61
2018-04-06T05:45:57.610Z,101880.54
2018-04-06T05:48:25.745Z,101876.27
2018-04-06T05:50:53.865Z,101876.78
2018-04-06T05:53:22.011Z,101875.64
2018-04-06T05:55:50.139Z,101878.48
2018-04-06T05:58:18.281Z,101872.06
2018-04-06T06:00:46.421Z,101880.16
2018-04-06T06:03:14.543Z,101876.23
2018-04-06T06:05:42.680Z,101872.30
2018-04-06T06:08:10.811Z,101872.95
2018-04-06T06:10:38.913Z,101878.78
2018-04-06T06:13:07.059Z,101880.16
2018-04-06T06:15:35.191Z,101877.27
2018-04-06T06:18:03.378Z,101876.20
2018-04-06T06:20:31.525Z,101876.38
2018-04-06T06:22:59.658Z,101875.81
2018-04-06T06:25:27.793Z,101870.59
2018-04-06T06:27:55.895Z,101870.05
2018-04-06T06:30:24.023Z,101870.60
2018-04-06T06:32:52.160Z,101861.63
2018-04-06T06:35:20.298Z,101856.16
2018-04-06T06:37:48.432Z,101850.47
2018-04-06T06:40:16.554Z,101846.78
2018-04-06T06:42:44.675Z,101848.88
2018-04-06T06:45:12.792Z,101845.73
2018-04-06T06:47:40.934Z,101847.39
2018-04-06T06:50:09.087Z,101849.50
2018-04-06T06:52:37.243Z,101850.19
2018-04-06T06:55:05.353Z,101840.00
2018-04-06T06:57:33.492Z,101841.77
2018-04-06T07:00:01.630Z,101830.99
2018-04-06T07:02:29.742Z,101832.00
2018-04-06T07:04:57.852Z,101827.94
2018-04-06T07:07:25.974Z,101830.84
2018-04-06T07:09:54.126Z,101832.63
2018-04-06T07:12:22.252Z,101836.32
2018-04-06T07:14:50.432Z,101835.77
2018-04-06T07:17:18.574Z,101828.83
2018-04-06T07:19:46.676Z,101822.45
2018-04-06T07:22:14.820Z,101824.33
2018-04-06T07:24:42.962Z,101811.47
2018-04-06T07:27:11.103Z,101815.12
2018-04-06T07:29:39.230Z,101822.77
2018-04-06T07:32:07.369Z,101816.51
2018-04-06T07:34:35.504Z,101810.42
2018-04-06T07:37:06.837Z,101810.18
2018-04-06T07:39:34.952Z,101805.64
2018-04-06T07:42:03.087Z,101810.88
2018-04-06T07:44:31.209Z,101803.16
2018-04-06T07:46:59.503Z,101795.80
2018-04-06T07:49:27.624Z,101798.12
2018-04-06T07:51:55.774Z,101792.22
2018-04-06T07:54:23.899Z,101799.31
2018-04-06T07:56:52.043Z,101793.42
2018-04-06T07:59:20.165Z,101807.56
2018-04-06T08:01:48.353Z,101802.03
2018-04-06T08:04:16.471Z,101799.56
2018-04-06T08:06:44.608Z,101807.30
2018-04-06T08:09:12.762Z,101803.95
2018-04-06T08:11:40.882Z,101807.33
2018-04-06T08:14:09.035Z,101807.69
2018-04-06T08:16:37.643Z,101801.94
2018-04-06T08:19:05.773Z,101808.27
2018-04-06T08:21:34.294Z,101819.12
2018-04-06T08:24:02.420Z,101808.47
2018-04-06T08:26:30.576Z,101811.16
2018-04-06T08:28:58.703Z,101794.26
2018-04-06T08:31:26.881Z,101796.19
2018-04-06T08:33:55.028Z,101786.17
2018-04-06T08:36:23.173Z,101803.87
2018-04-06T08:38:51.290Z,101802.96
2018-04-06T08:41:19.419Z,101806.61
2018-04-06T08:43:47.557Z,101788.25
2018-04-06T08:46:15.672Z,101785.83
2018-04-06T08:48:43.816Z,101790.66
2018-04-06T08:51:11.951Z,101777.47
2018-04-06T08:53:40.078Z,101782.45
2018-04-06T08:56:08.248Z,101777.58
2018-04-06T08:58:36.396Z,101769.98
2018-04-06T09:01:04.563Z,101775.21
2018-04-06T09:03:32.681Z,101759.67
2018-04-06T09:06:00.833Z,101756.77
2018-04-06T09:08:28.975Z,101749.95
2018-04-06T09:10:57.102Z,101745.80
2018-04-06T09:13:28.927Z,101742.70
2018-04-06T09:15:57.071Z,101743.38
2018-04-06T09:18:25.197Z,101734.38
2018-04-06T09:20:53.323Z,101736.70
2018-04-06T09:23:21.511Z,101726.44
2018-04-06T09:25:49.670Z,101724.80
2018-04-06T09:28:17.799Z,101720.72
2018-04-06T09:30:45.957Z,101725.01
2018-04-06T09:33:14.076Z,101728.40
2018-04-06T09:35:42.211Z,101723.16
2018-04-06T09:38:16.110Z,101724.19
2018-04-06T09:40:44.212Z,101721.73
2018-04-06T09:43:12.353Z,101716.70
2018-04-06T09:45:40.531Z,101718.06
2018-04-06T09:48:08.663Z,101706.96
2018-04-06T09:50:36.783Z,101722.77
2018-04-06T09:53:04.900Z,101717.53
2018-04-06T09:55:33.012Z,101707.15
2018-04-06T09:58:01.146Z,101705.95
2018-04-06T10:00:33.148Z,101715.26
2018-04-06T10:03:03.207Z,101704.64
2018-04-06T10:05:31.314Z,101706.31
2018-04-06T10:07:59.448Z,101698.75
2018-04-06T10:10:27.577Z,101700.43
2018-04-06T10:12:55.695Z,101684.09
2018-04-06T10:15:23.822Z,101680.09
2018-04-06T10:17:51.933Z,101678.18
2018-04-06T10:20:20.089Z,101662.92
2018-04-06T10:22:48.206Z,101679.17
2018-04-06T10:25:16.324Z,101665.21
2018-04-06T10:27:44.453Z,101664.89
2018-04-06T10:30:12.592Z,101661.11
2018-04-06T10:32:40.712Z,101652.91
2018-04-06T10:35:10.912Z,101653.48
2018-04-06T10:37:39.238Z,101653.48
2018-04-06T10:40:07.364Z,101662.73
2018-04-06T10:42:35.482Z,101661.33
2018-04-06T10:45:03.621Z,101652.69
2018-04-06T10:47:32.024Z,101657.13
2018-04-06T10:50:00.136Z,101637.48
2018-04-06T10:52:28.260Z,101639.61
2018-04-06T10:54:56.412Z,101639.22
2018-04-06T10:57:24.554Z,101635.87
2018-04-06T10:59:52.673Z,101628.30
2018-04-06T11:02:20.793Z,101633.34
2018-04-06T11:04:48.918Z,101619.47
2018-04-06T11:07:17.026Z,101614.02
2018-04-06T11:09:45.168Z,101614.27
2018-04-06T11:12:13.293Z,101613.58
2018-04-06T11:14:41.421Z,101616.41
2018-04-06T11:17:09.573Z,101611.32
2018-04-06T11:19:37.688Z,101608.12
2018-04-06T11:22:05.896Z,101600.23
2018-04-06T11:24:34.010Z,101599.95
2018-04-06T11:27:02.124Z,101597.14
2018-04-06T11:29:30.514Z,101585.16
2018-04-06T11:31:58.623Z,101578.71
2018-04-06T11:34:26.745Z,101573.86
2018-04-06T11:36:54.917Z,101580.59
2018-04-06T11:39:23.022Z,101580.76
2018-04-06T11:41:51.153Z,101570.56
2018-04-06T11:44:19.292Z,101566.23
2018-04-06T11:46:47.398Z,101550.23
2018-04-06T11:49:15.517Z,101556.66
2018-04-06T11:51:43.621Z,101551.31
2018-04-06T11:54:11.805Z,101539.84
2018-04-06T11:56:39.864Z,101534.57
2018-04-06T11:59:07.992Z,101538.66
2018-04-06T12:01:36.644Z,101540.72
2018-04-06T12:04:04.738Z,101533.22
2018-04-06T12:06:33.789Z,101530.84
2018-04-06T12:09:01.893Z,101538.52
2018-04-06T12:11:30.025Z,101513.00
2018-04-06T12:13:58.131Z,101518.15
2018-04-06T12:16:26.259Z,101502.39
2018-04-06T12:18:54.389Z,101509.45
2018-04-06T12:21:22.811Z,101494.37
2018-04-06T12:23:51.227Z,101490.91
2018-04-06T12:26:19.357Z,101479.95
2018-04-06T12:28:47.481Z,101471.88
2018-04-06T12:31:15.624Z,101471.70
2018-04-06T12:33:43.774Z,101464.42
2018-04-06T12:36:11.899Z,101453.31
2018-04-06T12:38:40.017Z,101446.53
2018-04-06T12:41:08.121Z,101456.46
2018-04-06T12:43:36.240Z,101434.45
2018-04-06T12:46:04.341Z,101441.88
2018-04-06T12:48:32.477Z,101428.89
2018-04-06T12:51:00.588Z,101432.08
2018-04-06T12:53:28.863Z,101416.28
2018-04-06T12:55:56.956Z,101410.23
2018-04-06T12:58:25.082Z,101413.83
2018-04-06T13:00:53.207Z,101407.44
2018-04-06T13:03:21.316Z,101410.67
2018-04-06T13:05:49.439Z,101404.52
2018-04-06T13:08:17.560Z,101397.62
2018-04-06T13:10:45.679Z,101388.56
2018-04-06T13:13:13.813Z,101388.15
2018-04-06T13:15:44.860Z,101384.31
2018-04-06T13:18:12.997Z,101399.11
2018-04-06T13:20:41.120Z,101385.23
2018-04-06T13:23:09.300Z,101385.63
2018-04-06T13:25:37.936Z,101377.92
2018-04-06T13:28:06.064Z,101370.31
2018-04-06T13:30:34.368Z,101360.98
2018-04-06T13:33:02.615Z,101350.23
2018-04-06T13:35:30.926Z,101342.05
2018-04-06T13:37:59.045Z,101324.02
2018-04-06T13:40:27.171Z,101321.34
2018-04-06T13:42:55.285Z,101315.55
2018-04-06T13:45:23.427Z,101316.29
2018-04-06T13:47:51.553Z,101313.19
2018-04-06T13:50:19.701Z,101313.73
2018-04-06T13:52:51.531Z,101307.06
2018-04-06T13:55:19.682Z,101306.29
2018-04-06T13:57:47.801Z,101299.03
2018-04-06T14:00:15.901Z,101298.45
2018-04-06T14:02:44.025Z,101312.28
2018-04-06T14:05:12.142Z,101301.47
2018-04-06T14:07:40.240Z,101284.45
2018-04-06T14:10:08.371Z,101282.75
2018-04-06T14:12:36.495Z,101268.39
2018-04-06T14:15:04.666Z,101272.41
2018-04-06T14:17:35.941Z,101270.25
2018-04-06T14:20:04.064Z,101268.70
2018-04-06T14:22:32.206Z,101269.70
2018-04-06T14:25:00.312Z,101254.91
2018-04-06T14:27:28.445Z,101239.44
2018-04-06T14:29:56.538Z,101248.33
2018-04-06T14:32:24.655Z,101241.41
2018-04-06T14:34:52.780Z,101248.04
2018-04-06T14:37:20.915Z,101236.16
2018-04-06T14:39:49.055Z,101233.60
2018-04-06T14:42:17.165Z,101236.00
2018-04-06T14:44:45.288Z,101232.44
2018-04-06T14:47:13.421Z,101227.46
2018-04-06T14:49:41.521Z,101215.30
2018-04-06T14:52:09.648Z,101209.56
2018-04-06T14:54:37.763Z,101209.80
2018-04-06T14:57:05.911Z,101214.16
2018-04-06T14:59:34.028Z,101202.14
2018-04-06T15:02:02.226Z,101196.02
2018-04-06T15:04:30.340Z,101198.23
2018-04-06T15:06:58.538Z,101196.38
2018-04-06T15:09:26.797Z,101189.90
2018-04-06T15:12:01.099Z,101195.43
2018-04-06T15:14:30.291Z,101189.91
2018-04-06T15:16:58.410Z,101184.66
2018-04-06T15:19:26.551Z,101179.45
2018-04-06T15:21:54.721Z,101180.44
2018-04-06T15:24:22.853Z,101176.23
2018-04-06T15:26:50.992Z,101172.03
2018-04-06T15:29:19.104Z,101168.48
2018-04-06T15:31:48.494Z,101177.09
2018-04-06T15:34:16.800Z,101172.44
2018-04-06T15:36:45.128Z,101169.91
2018-04-06T15:39:13.232Z,101160.20
2018-04-06T15:41:41.346Z,101158.21
2018-04-06T15:44:10.823Z,101162.23
2018-04-06T15:46:38.934Z,101161.09
2018-04-06T15:49:07.088Z,101168.59
2018-04-06T15:51:35.237Z,101162.98
2018-04-06T15:54:03.364Z,101157.58
2018-04-06T15:56:31.492Z,101151.14
2018-04-06T15:58:59.611Z,101156.28
2018-04-06T16:01:27.742Z,101151.98
2018-04-06T16:03:55.898Z,101149.95
2018-04-06T16:06:24.026Z,101156.30
2018-04-06T16:08:52.165Z,101138.50
2018-04-06T16:11:20.781Z,101139.34
2018-04-06T16:13:48.884Z,101145.55
2018-04-06T16:16:17.008Z,101139.70
2018-04-06T16:18:45.162Z,101128.70
2018-04-06T16:21:13.269Z,101129.77
2018-04-06T16:23:41.411Z,101132.58
2018-04-06T16:26:09.564Z,101128.60
2018-04-06T16:28:37.691Z,101128.41
2018-04-06T16:31:05.834Z,101121.30
2018-04-06T16:33:33.976Z,101123.88
2018-04-06T16:36:02.104Z,101130.19
2018-04-06T16:38:30.231Z,101118.41
2018-04-06T16:41:01.757Z,101127.14
2018-04-06T16:43:29.861Z,101131.38
2018-04-06T16:45:58.010Z,101129.98
2018-04-06T16:48:26.163Z,101128.67
2018-04-06T16:50:54.275Z,101126.67
2018-04-06T16:53:22.404Z,101129.84
2018-04-06T16:55:50.526Z,101132.67
2018-04-06T16:58:18.674Z,101138.02
2018-04-06T17:00:46.807Z,101137.14
2018-04-06T17:03:14.942Z,101134.89
2018-04-06T17:05:43.049Z,101132.81
2018-04-06T17:08:11.183Z,101136.29
2018-04-06T17:10:39.310Z,101138.97
2018-04-06T17:13:07.472Z,101135.88
2018-04-06T17:15:35.560Z,101123.95
2018-04-06T17:18:03.677Z,101130.91
2018-04-06T17:20:31.833Z,101134.94
2018-04-06T17:22:59.958Z,101140.51
2018-04-06T17:25:28.082Z,101143.09
2018-04-06T17:27:56.205Z,101140.64
2018-04-06T17:30:24.336Z,101143.52
2018-04-06T17:32:52.477Z,101137.03
2018-04-06T17:35:23.579Z,101133.19
2018-04-06T17:37:51.696Z,101129.70
2018-04-06T17:40:19.849Z,101134.91
2018-04-06T17:42:47.952Z,101135.33
2018-04-06T17:45:16.099Z,101133.34
2018-04-06T17:47:44.204Z,101125.28
2018-04-06T17:50:12.338Z,101117.19
2018-04-06T17:52:40.494Z,101114.13
2018-04-06T17:55:08.622Z,101121.69
2018-04-06T17:57:37.090Z,101119.40
2018-04-06T18:00:07.457Z,101115.70
2018-04-06T18:02:35.596Z,101117.63
2018-04-06T18:05:03.735Z,101124.81
2018-04-06T18:07:31.855Z,101123.02
2018-04-06T18:10:00.020Z,101121.15
2018-04-06T18:12:28.261Z,101121.02
2018-04-06T18:14:56.365Z,101119.52
2018-04-06T18:17:24.484Z,101112.99
2018-04-06T18:19:52.616Z,101118.34
2018-04-06T18:22:20.805Z,101117.48
2018-04-06T18:24:48.939Z,101116.53
2018-04-06T18:27:17.374Z,101117.03
2018-04-06T18:29:45.515Z,101111.31
2018-04-06T18:32:13.670Z,101113.66
2018-04-06T18:34:41.799Z,101111.81
2018-04-06T18:37:09.913Z,101112.61
2018-04-06T18:39:38.051Z,101107.36
2018-04-06T18:42:06.197Z,101110.23
2018-04-06T18:44:34.315Z,101105.70
2018-04-06T18:47:02.444Z,101105.94
2018-04-06T18:49:30.595Z,101108.04
2018-04-06T18:51:58.692Z,101104.52
2018-04-06T18:54:26.813Z,101106.82
2018-04-06T18:56:54.933Z,101105.70
2018-04-06T18:59:23.074Z,101102.05
2018-04-06T19:01:51.194Z,101108.59
2018-04-06T19:04:19.385Z,101103.23
2018-04-06T19:06:47.546Z,101098.52
2018-04-06T19:09:15.663Z,101091.44
2018-04-06T19:11:43.802Z,101097.87
2018-04-06T19:14:11.939Z,101089.12
2018-04-06T19:16:40.038Z,101093.30
2018-04-06T19:19:08.173Z,101092.65
2018-04-06T19:21:36.551Z,101090.55
2018-04-06T19:24:04.665Z,101085.64
2018-04-06T19:26:32.787Z,101088.80
2018-04-06T19:29:00.898Z,101085.98
2018-04-06T19:31:29.036Z,101078.09
2018-04-06T19:33:57.164Z,101076.74
2018-04-06T19:36:25.321Z,101073.35
2018-04-06T19:38:53.430Z,101070.77
2018-04-06T19:41:25.288Z,101065.59
2018-04-06T19:43:53.459Z,101061.78
2018-04-06T19:46:21.539Z,101064.73
2018-04-06T19:48:49.692Z,101062.53
2018-04-06T19:51:17.815Z,101061.42
2018-04-06T19:53:45.933Z,101056.68
2018-04-06T19:56:14.063Z,101060.30
2018-04-06T19:58:42.176Z,101055.84
2018-04-06T20:01:10.318Z,101053.92
2018-04-06T20:03:38.447Z,101045.31
2018-04-06T20:06:06.596Z,101039.33
2018-04-06T20:08:34.717Z,101039.14
2018-04-06T20:11:02.867Z,101039.62
2018-04-06T20:13:31.010Z,101033.16
2018-04-06T20:15:59.124Z,101030.82
2018-04-06T20:18:27.389Z,101021.57
2018-04-06T20:20:55.525Z,101023.97
2018-04-06T20:23:23.643Z,101023.63
2018-04-06T20:25:51.779Z,101016.86
2018-04-06T20:28:22.848Z,101013.04
2018-04-06T20:30:50.993Z,101002.23
2018-04-06T20:33:19.128Z,101000.19
2018-04-06T20:35:47.297Z,101000.37
2018-04-06T20:38:15.425Z,100996.48
2018-04-06T20:40:43.540Z,100991.36
2018-04-06T20:43:11.663Z,100993.88
2018-04-06T20:45:39.819Z,100987.90
2018-04-06T20:48:07.925Z,100984.48
2018-04-06T20:50:36.069Z,100987.60
2018-04-06T20:53:04.178Z,100986.02
2018-04-06T20:55:32.289Z,100982.06
2018-04-06T20:58:00.442Z,100984.14
2018-04-06T21:00:28.564Z,100972.72
2018-04-06T21:02:56.715Z,100975.80
2018-04-06T21:05:24.855Z,100970.16
2018-04-06T21:07:52.979Z,100965.61
2018-04-06T21:10:21.107Z,100965.73
2018-04-06T21:12:50.139Z,100955.52
2018-04-06T21:15:18.298Z,100965.33
2018-04-06T21:17:46.428Z,100957.17
2018-04-06T21:20:14.554Z,100958.50
2018-04-06T21:22:42.692Z,100968.38
2018-04-06T21:25:10.815Z,100952.45
2018-04-06T21:27:38.950Z,100949.36
2018-04-06T21:30:07.084Z,100935.43
2018-04-06T21:32:35.211Z,100937.53
2018-04-06T21:35:03.352Z,100931.03
2018-04-06T21:37:31.584Z,100934.27
2018-04-06T21:39:59.689Z,100934.82
2018-04-06T21:42:27.812Z,100939.83
2018-04-06T21:44:55.950Z,100943.23
2018-04-06T21:47:24.091Z,100942.58
2018-04-06T21:49:52.210Z,100945.17
2018-04-06T21:52:20.363Z,100931.67
2018-04-06T21:54:48.461Z,100929.55
2018-04-06T21:57:16.583Z,100931.28
2018-04-06T21:59:45.230Z,100929.80
2018-04-06T22:02:13.344Z,100929.14
2018-04-06T22:04:41.557Z,100925.02
2018-04-06T22:07:09.658Z,100927.21
2018-04-06T22:09:37.846Z,100919.68
2018-04-06T22:12:06.075Z,100917.94
2018-04-06T22:14:34.184Z,100919.43
2018-04-06T22:17:02.328Z,100920.28
2018-04-06T22:19:30.446Z,100912.11
2018-04-06T22:21:58.564Z,100916.10
2018-04-06T22:24:26.725Z,100924.14
2018-04-06T22:26:55.318Z,100914.22
2018-04-06T22:29:23.464Z,100912.88
2018-04-06T22:31:51.604Z,100911.81
2018-04-06T22:34:19.733Z,100909.30
2018-04-06T22:36:47.880Z,100912.39
2018-04-06T22:39:16.026Z,100915.83
2018-04-06T22:41:44.168Z,100921.73
2018-04-06T22:44:12.297Z,100912.05
2018-04-06T22:46:40.429Z,100915.88
2018-04-06T22:49:08.574Z,100910.71
2018-04-06T22:51:36.712Z,100917.11
2018-04-06T22:54:04.857Z,100911.35
2018-04-06T22:56:33.000Z,100899.02
2018-04-06T22:59:01.124Z,100887.34
2018-04-06T23:01:29.269Z,100885.45
2018-04-06T23:03:57.448Z,100894.19
2018-04-06T23:06:25.602Z,100883.63
2018-04-06T23:08:53.734Z,100882.20
2018-04-06T23:11:21.872Z,100877.86
2018-04-06T23:13:50.021Z,100878.64
2018-04-06T23:16:21.343Z,100873.36
2018-04-06T23:18:49.502Z,100877.29
2018-04-06T23:21:17.661Z,100878.47
2018-04-06T23:23:45.793Z,100877.66
2018-04-06T23:26:13.956Z,100869.37
2018-04-06T23:28:42.081Z,100876.17
2018-04-06T23:31:10.235Z,100877.66
2018-04-06T23:33:38.368Z,100878.05
2018-04-06T23:36:06.498Z,100885.91
2018-04-06T23:38:34.644Z,100880.92
2018-04-06T23:41:02.792Z,100875.91
2018-04-06T23:43:30.933Z,100870.58
2018-04-06T23:45:59.076Z,100873.94
2018-04-06T23:48:27.220Z,100873.94
2018-04-06T23:50:55.375Z,100877.00
2018-04-06T23:53:23.498Z,100876.22
2018-04-06T23:55:51.645Z,100873.88
2018-04-06T23:58:19.782Z,100871.72
